Time;durP1;ratioP1;P1;durP2;ratioP2;P2;SDS_P1;SDS_P2;PMS_P1;PMS_P2;Temp;Humidity;BMP_temperature;BMP_pressure;BME280_temperature;BME280_humidity;BME280_pressure;Samples;Min_cycle;Max_cycle;Signal;HPM_P1;HPM_P2
2023/12/18 00:01:57;;;;;;;0.38;0.35;;;;;;;23.03;68.38;100924.44;7395216;19;20467;-59
2023/12/18 00:04:23;;;;;;;0.10;0.10;;;;;;;23.17;67.87;100917.56;7394689;19;20020;-65
2023/12/18 00:06:53;;;;;;;0.35;0.30;;;;;;;23.02;68.76;100928.63;7394745;19;20035;-65
2023/12/18 00:09:19;;;;;;;0.13;0.00;;;;;;;23.33;67.22;100925.09;7398754;19;20006;-65
2023/12/18 00:11:45;;;;;;;0.68;0.47;;;;;;;23.28;67.41;100926.69;7393409;19;20022;-64
2023/12/18 00:14:12;;;;;;;0.15;0.15;;;;;;;23.10;67.99;100929.53;7395891;19;20014;-65
2023/12/18 00:16:38;;;;;;;0.50;0.15;;;;;;;23.51;67.12;100924.31;7394752;19;20030;-64
2023/12/18 00:19:07;;;;;;;7.68;1.10;;;;;;;23.22;66.71;100939.44;7393872;19;20349;-64
2023/12/18 00:21:33;;;;;;;0.00;0.00;;;;;;;23.26;66.53;100937.03;7396688;19;20014;-65
2023/12/18 00:24:03;;;;;;;0.10;0.10;;;;;;;23.15;66.94;100928.69;7395051;19;20014;-58
2023/12/18 00:26:34;;;;;;;0.05;0.05;;;;;;;23.12;67.82;100932.59;7395509;19;20034;-59
2023/12/18 00:29:00;;;;;;;2.07;0.97;;;;;;;23.33;67.60;100927.94;7395518;19;20042;-59
2023/12/18 00:31:26;;;;;;;0.80;0.47;;;;;;;23.26;67.25;100928.53;7395142;19;20007;-62
2023/12/18 00:33:52;;;;;;;4.05;0.47;;;;;;;22.92;68.43;100927.44;7395278;19;20347;-59
2023/12/18 00:36:19;;;;;;;0.20;0.20;;;;;;;23.51;66.77;100918.63;7397882;19;20327;-59
2023/12/18 00:38:45;;;;;;;3.83;0.85;;;;;;;23.70;65.86;100915.75;7396550;19;20007;-59
2023/12/18 00:41:11;;;;;;;0.35;0.35;;;;;;;23.45;66.43;100908.66;7398983;19;20018;-59
2023/12/18 00:43:38;;;;;;;0.70;0.28;;;;;;;23.44;66.45;100913.56;7394515;19;20396;-64
2023/12/18 00:46:05;;;;;;;0.10;0.10;;;;;;;23.51;66.36;100918.63;7393825;19;20070;-64
2023/12/18 00:48:31;;;;;;;0.40;0.20;;;;;;;23.49;66.01;100921.25;7394182;19;20014;-64
2023/12/18 00:50:57;;;;;;;0.10;0.00;;;;;;;23.61;66.13;100916.91;7398118;19;20014;-65
2023/12/18 00:53:23;;;;;;;0.10;0.00;;;;;;;24.77;69.49;100914.09;7401003;19;20024;-65
2023/12/18 00:55:50;;;;;;;0.38;0.10;;;;;;;41.12;31.76;100869.53;7401669;19;20050;-65
2023/12/18 00:58:17;;;;;;;0.50;0.30;;;;;;;34.00;38.95;100879.84;7406053;19;20317;-66
2023/12/18 01:00:43;;;;;;;0.70;0.45;;;;;;;20.52;69.58;100909.91;7401797;19;20018;-65
2023/12/18 01:03:09;;;;;;;0.28;0.20;;;;;;;24.68;63.66;100898.19;7401394;19;20014;-65
2023/12/18 01:05:40;;;;;;;0.40;0.40;;;;;;;20.67;90.95;100899.03;7401646;19;20046;-64
2023/12/18 01:08:07;;;;;;;0.73;0.28;;;;;;;23.47;92.26;100889.75;7404731;19;20332;-65
2023/12/18 01:10:34;;;;;;;0.32;0.20;;;;;;;18.19;98.16;100908.63;7400801;19;20011;-65
2023/12/18 01:13:00;;;;;;;1.00;0.25;;;;;;;16.26;100.00;100901.69;7402545;19;20018;-65
2023/12/18 01:15:26;;;;;;;0.40;0.40;;;;;;;16.17;100.00;100911.00;7402706;19;20066;-64
2023/12/18 01:17:52;;;;;;;0.17;0.17;;;;;;;16.01;100.00;100914.31;7403458;19;20022;-65
2023/12/18 01:20:18;;;;;;;0.90;0.40;;;;;;;16.08;100.00;100904.72;7399609;19;20035;-65
2023/12/18 01:22:44;;;;;;;0.10;0.10;;;;;;;16.03;100.00;100913.84;7399752;19;20029;-65
2023/12/18 01:25:11;;;;;;;0.45;0.38;;;;;;;16.03;100.00;100908.22;7401847;19;20011;-59
2023/12/18 01:27:39;;;;;;;0.55;0.20;;;;;;;15.92;100.00;100906.00;7403560;19;20025;-58
2023/12/18 01:30:06;;;;;;;0.15;0.15;;;;;;;15.83;100.00;100901.28;7400568;19;20462;-64
2023/12/18 01:32:35;;;;;;;1.95;0.85;;;;;;;15.85;100.00;100898.75;7398003;19;20017;-64
2023/12/18 01:35:02;;;;;;;0.73;0.45;;;;;;;15.90;100.00;100894.47;7400189;19;20447;-65
2023/12/18 01:37:28;;;;;;;5.10;0.40;;;;;;;15.47;100.00;100896.06;7398676;19;20015;-65
2023/12/18 01:39:54;;;;;;;1.95;0.25;;;;;;;15.82;100.00;100887.72;7404303;19;20025;-66
2023/12/18 01:42:20;;;;;;;0.55;0.35;;;;;;;37.59;43.92;100848.13;7399919;19;20018;-65
2023/12/18 01:44:48;;;;;;;4.28;1.23;;;;;;;44.61;27.27;100828.38;7400622;19;20011;-69
2023/12/18 01:47:19;;;;;;;0.75;0.57;;;;;;;23.30;66.09;100857.94;7400344;19;20013;-66
2023/12/18 01:49:50;;;;;;;3.83;0.45;;;;;;;17.66;100.00;100872.63;7400653;19;20018;-65
2023/12/18 01:52:17;;;;;;;0.35;0.35;;;;;;;30.50;69.90;100841.94;7397523;19;20022;-65
2023/12/18 01:54:45;;;;;;;0.50;0.10;;;;;;;17.73;100.00;100863.72;7403113;19;20015;-66
2023/12/18 01:57:13;;;;;;;0.10;0.10;;;;;;;16.36;100.00;100874.97;7402297;19;20066;-65
2023/12/18 01:59:39;;;;;;;6.90;0.45;;;;;;;16.04;100.00;100885.25;7396926;19;20328;-65
2023/12/18 02:02:06;;;;;;;2.30;0.68;;;;;;;16.03;100.00;100885.72;7396925;19;20475;-65
2023/12/18 02:04:32;;;;;;;0.40;0.20;;;;;;;15.97;100.00;100888.47;7396248;19;20090;-65
2023/12/18 02:07:01;;;;;;;0.20;0.10;;;;;;;15.93;100.00;100876.66;7398434;19;20038;-65
2023/12/18 02:09:28;;;;;;;0.20;0.20;;;;;;;15.90;100.00;100877.63;7396133;19;20470;-64
2023/12/18 02:11:54;;;;;;;0.22;0.10;;;;;;;15.92;100.00;100892.75;7396356;19;20007;-65
2023/12/18 02:14:20;;;;;;;9.05;0.75;;;;;;;15.92;100.00;100891.97;7399615;19;20336;-59
2023/12/18 02:16:47;;;;;;;0.85;0.63;;;;;;;16.10;100.00;100863.63;7402108;19;20010;-59
2023/12/18 02:19:41;;;;;;;0.55;0.45;;;;;;;16.15;100.00;100871.38;7400359;19;20010;-59
2023/12/18 02:22:08;;;;;;;1.85;0.85;;;;;;;16.12;100.00;100865.94;7399122;19;20018;-59
2023/12/18 02:24:36;;;;;;;0.15;0.15;;;;;;;16.11;100.00;100859.56;7401860;19;20345;-59
2023/12/18 02:27:06;;;;;;;2.97;0.20;;;;;;;16.11;100.00;100875.66;7399990;19;20017;-59
2023/12/18 02:29:32;;;;;;;0.50;0.37;;;;;;;16.10;100.00;100874.88;7397483;19;20043;-59
2023/12/18 02:32:01;;;;;;;0.10;0.10;;;;;;;16.05;100.00;100872.75;7395999;19;20018;-65
2023/12/18 02:34:27;;;;;;;0.20;0.15;;;;;;;16.04;100.00;100865.59;7396498;19;20021;-64
2023/12/18 02:36:53;;;;;;;0.03;0.00;;;;;;;16.05;100.00;100877.63;7396739;19;20014;-65
2023/12/18 02:39:22;;;;;;;2.28;0.15;;;;;;;16.04;100.00;100870.44;7401374;19;20014;-65
2023/12/18 02:41:48;;;;;;;0.28;0.22;;;;;;;16.03;100.00;100868.88;7399093;19;20328;-65
2023/12/18 02:44:14;;;;;;;3.45;0.35;;;;;;;16.04;100.00;100871.22;7401942;19;20503;-65
2023/12/18 02:46:40;;;;;;;5.57;0.38;;;;;;;16.08;100.00;100865.38;7396819;19;20011;-66
2023/12/18 02:49:06;;;;;;;0.63;0.40;;;;;;;16.10;100.00;100858.00;7397605;19;20018;-65
2023/12/18 02:51:34;;;;;;;1.75;0.68;;;;;;;16.06;100.00;100865.88;7400240;19;20006;-65
2023/12/18 02:54:00;;;;;;;0.63;0.40;;;;;;;16.04;100.00;100870.44;7400835;19;20011;-66
2023/12/18 02:56:27;;;;;;;9.82;0.95;;;;;;;15.94;100.00;100858.53;7400323;19;20014;-65
2023/12/18 02:58:53;;;;;;;0.77;0.10;;;;;;;15.98;100.00;100856.31;7396313;19;20360;-65
2023/12/18 03:01:19;;;;;;;0.90;0.52;;;;;;;15.96;100.00;100847.56;7399856;19;20084;-65
2023/12/18 03:03:45;;;;;;;0.55;0.25;;;;;;;15.92;100.00;100841.38;7399759;19;20319;-65
2023/12/18 03:06:13;;;;;;;0.10;0.10;;;;;;;15.94;100.00;100836.06;7400719;19;20447;-65
2023/12/18 03:08:39;;;;;;;0.45;0.22;;;;;;;15.90;100.00;100839.06;7400124;19;20368;-65
2023/12/18 03:11:06;;;;;;;0.93;0.93;;;;;;;15.98;100.00;100845.06;7395870;19;20037;-65
2023/12/18 03:13:32;;;;;;;0.38;0.38;;;;;;;16.00;100.00;100841.78;7395682;19;20397;-65
2023/12/18 03:16:03;;;;;;;1.10;0.47;;;;;;;16.01;100.00;100832.84;7397511;19;20010;-65
2023/12/18 03:18:29;;;;;;;1.77;0.22;;;;;;;16.03;100.00;100833.13;7399855;19;20015;-65
2023/12/18 03:20:55;;;;;;;0.30;0.30;;;;;;;16.03;100.00;100819.06;7400512;19;20010;-65
2023/12/18 03:23:24;;;;;;;0.28;0.20;;;;;;;16.04;100.00;100826.25;7399148;19;20039;-65
2023/12/18 03:25:50;;;;;;;0.38;0.38;;;;;;;16.04;100.00;100823.44;7395219;19;20019;-64
2023/12/18 03:28:18;;;;;;;5.18;0.95;;;;;;;16.03;100.00;100823.91;7397583;19;20018;-64
2023/12/18 03:30:44;;;;;;;0.22;0.20;;;;;;;16.03;100.00;100813.47;7392992;19;20007;-65
2023/12/18 03:33:12;;;;;;;0.10;0.10;;;;;;;16.02;100.00;100806.31;7390949;19;20046;-69
2023/12/18 03:35:42;;;;;;;0.30;0.28;;;;;;;16.01;100.00;100799.13;7393347;19;20010;-65
2023/12/18 03:38:12;;;;;;;0.10;0.10;;;;;;;16.01;100.00;100809.59;7393512;19;20022;-65
2023/12/18 03:40:41;;;;;;;2.05;0.38;;;;;;;16.00;100.00;100800.41;7396971;19;20018;-65
2023/12/18 03:43:10;;;;;;;3.05;0.93;;;;;;;15.98;100.00;100802.94;7392108;19;20021;-65
2023/12/18 03:45:38;;;;;;;9.35;0.75;;;;;;;15.98;100.00;100799.34;7393412;19;20018;-65
2023/12/18 03:48:05;;;;;;;0.20;0.20;;;;;;;15.99;100.00;100806.50;7394485;19;20015;-65
2023/12/18 03:50:31;;;;;;;0.08;0.08;;;;;;;16.00;100.00;100805.25;7397878;19;20035;-66
2023/12/18 03:52:57;;;;;;;4.03;0.47;;;;;;;16.00;100.00;100803.22;7395546;19;20006;-65
2023/12/18 03:55:24;;;;;;;1.98;0.88;;;;;;;16.02;100.00;100806.31;7394506;19;20010;-65
2023/12/18 03:57:50;;;;;;;0.57;0.52;;;;;;;16.01;100.00;100798.34;7394378;19;20011;-65
2023/12/18 04:00:16;;;;;;;0.10;0.10;;;;;;;16.00;100.00;100791.97;7393434;19;20030;-65
2023/12/18 04:02:42;;;;;;;0.10;0.10;;;;;;;16.03;100.00;100802.22;7394510;19;20013;-59
2023/12/18 04:05:09;;;;;;;0.10;0.10;;;;;;;16.07;100.00;100796.41;7395049;19;20014;-59
2023/12/18 04:07:35;;;;;;;0.32;0.10;;;;;;;16.07;100.00;100797.16;7394832;19;20466;-59
2023/12/18 04:10:02;;;;;;;0.28;0.08;;;;;;;16.07;100.00;100794.34;7394077;19;20015;-59
2023/12/18 04:12:29;;;;;;;0.57;0.32;;;;;;;16.06;100.00;100794.84;7392089;19;20015;-59
2023/12/18 04:14:56;;;;;;;0.10;0.10;;;;;;;16.07;100.00;100797.16;7397131;19;20019;-58
2023/12/18 04:17:22;;;;;;;2.35;1.08;;;;;;;16.06;100.00;100784.38;7393041;19;20007;-58
2023/12/18 04:19:48;;;;;;;0.20;0.10;;;;;;;16.02;100.00;100789.44;7392719;19;20030;-59
2023/12/18 04:22:15;;;;;;;4.05;0.28;;;;;;;15.99;100.00;100790.41;7391927;19;20018;-59
2023/12/18 04:24:41;;;;;;;1.65;0.17;;;;;;;15.98;100.00;100797.31;7391238;19;20015;-59
2023/12/18 04:27:11;;;;;;;0.00;0.00;;;;;;;15.96;100.00;100780.16;7395624;19;20126;-59
2023/12/18 04:29:38;;;;;;;0.00;0.00;;;;;;;15.90;100.00;100787.72;7394329;19;20010;-60
2023/12/18 04:32:05;;;;;;;0.98;0.77;;;;;;;15.85;100.00;100786.38;7392538;19;20015;-60
2023/12/18 04:34:33;;;;;;;0.10;0.10;;;;;;;15.83;100.00;100776.94;7393154;19;20011;-59
2023/12/18 04:37:00;;;;;;;8.82;0.35;;;;;;;15.81;100.00;100773.81;7393735;19;20009;-59
2023/12/18 04:39:30;;;;;;;4.30;0.43;;;;;;;15.85;100.00;100768.78;7391856;19;20347;-59
2023/12/18 04:41:56;;;;;;;0.10;0.00;;;;;;;15.82;100.00;100769.75;7393555;19;20086;-59
2023/12/18 04:44:23;;;;;;;0.10;0.00;;;;;;;15.81;100.00;100773.81;7392246;19;20381;-59
2023/12/18 04:46:49;;;;;;;0.85;0.22;;;;;;;15.80;100.00;100769.47;7394378;19;20074;-58
2023/12/18 04:49:15;;;;;;;0.10;0.10;;;;;;;15.81;100.00;100768.19;7398329;19;20071;-58
2023/12/18 04:51:41;;;;;;;0.10;0.10;;;;;;;15.80;100.00;100761.03;7392790;19;20022;-59
2023/12/18 04:54:07;;;;;;;6.65;0.35;;;;;;;15.79;100.00;100759.47;7392423;19;20015;-58
2023/12/18 04:56:33;;;;;;;1.05;0.30;;;;;;;15.79;100.00;100759.47;7392383;19;20021;-59
2023/12/18 04:59:00;;;;;;;0.65;0.47;;;;;;;15.79;100.00;100759.47;7396691;19;20010;-58
2023/12/18 05:01:26;;;;;;;1.75;0.65;;;;;;;15.80;100.00;100758.22;7392178;19;20341;-65
2023/12/18 05:03:55;;;;;;;0.10;0.00;;;;;;;15.83;100.00;100752.41;7393615;19;20027;-65
2023/12/18 05:06:28;;;;;;;0.38;0.17;;;;;;;15.87;100.00;100760.63;7392312;19;20011;-64
2023/12/18 05:08:58;;;;;;;0.00;0.00;;;;;;;15.87;100.00;100750.16;7396549;19;20039;-65
2023/12/18 05:11:24;;;;;;;1.27;0.35;;;;;;;15.87;100.00;100743.78;7391951;19;20019;-65
2023/12/18 05:13:51;;;;;;;2.97;0.30;;;;;;;15.88;100.00;100739.69;7393869;19;20013;-65
2023/12/18 05:16:21;;;;;;;0.63;0.10;;;;;;;15.86;100.00;100743.00;7396452;19;20011;-64
2023/12/18 05:18:48;;;;;;;0.30;0.20;;;;;;;15.92;100.00;100745.88;7396307;19;20023;-64
2023/12/18 05:21:15;;;;;;;8.55;0.50;;;;;;;16.03;100.00;100743.22;7396977;19;20458;-64
2023/12/18 05:23:41;;;;;;;0.10;0.10;;;;;;;16.07;100.00;100740.97;7396994;19;20483;-64
2023/12/18 05:26:07;;;;;;;0.10;0.10;;;;;;;16.07;100.00;100743.75;7393908;19;20070;-64
2023/12/18 05:28:37;;;;;;;0.40;0.28;;;;;;;16.06;100.00;100750.66;7392859;19;20047;-64
2023/12/18 05:31:04;;;;;;;0.00;0.00;;;;;;;16.08;100.00;100744.53;7390064;19;20017;-65
2023/12/18 05:33:34;;;;;;;0.22;0.13;;;;;;;16.11;100.00;100744.34;7393093;19;20430;-64
2023/12/18 05:36:01;;;;;;;0.00;0.00;;;;;;;16.12;100.00;100743.06;7390332;19;20011;-64
2023/12/18 05:38:27;;;;;;;0.63;0.40;;;;;;;16.14;100.00;100740.53;7391253;19;20022;-64
2023/12/18 05:40:53;;;;;;;5.78;0.32;;;;;;;16.13;100.00;100741.03;7399090;19;20086;-64
2023/12/18 05:43:20;;;;;;;0.10;0.10;;;;;;;16.13;100.00;100747.44;7397180;19;20014;-64
2023/12/18 05:45:47;;;;;;;0.00;0.00;;;;;;;16.17;100.00;100736.75;7404533;19;20019;-65
2023/12/18 05:48:13;;;;;;;0.10;0.10;;;;;;;16.18;100.00;100741.09;7399820;19;20066;-64
2023/12/18 05:50:40;;;;;;;0.73;0.20;;;;;;;16.20;100.00;100744.19;7403994;19;20006;-64
2023/12/18 05:53:06;;;;;;;0.00;0.00;;;;;;;16.22;100.00;100736.03;7399854;19;20014;-64
2023/12/18 05:55:32;;;;;;;0.10;0.10;;;;;;;16.24;100.00;100727.88;7401166;19;20018;-64
2023/12/18 05:57:58;;;;;;;0.10;0.00;;;;;;;16.29;100.00;100735.59;7403995;19;20018;-59
2023/12/18 06:00:26;;;;;;;0.10;0.00;;;;;;;16.31;100.00;100733.06;7399628;19;20014;-59
2023/12/18 06:02:53;;;;;;;0.00;0.00;;;;;;;16.34;100.00;100726.47;7400780;19;20096;-60
2023/12/18 06:05:20;;;;;;;0.10;0.10;;;;;;;16.33;100.00;100716.47;7397101;19;20018;-58
2023/12/18 06:07:47;;;;;;;0.00;0.00;;;;;;;16.36;100.00;100723.94;7402094;19;20347;-59
2023/12/18 06:10:13;;;;;;;0.00;0.00;;;;;;;16.38;100.00;100729.06;7398922;19;20010;-59
2023/12/18 06:12:39;;;;;;;0.00;0.00;;;;;;;16.38;100.00;100727.03;7396293;19;20010;-58
2023/12/18 06:15:06;;;;;;;0.00;0.00;;;;;;;16.40;100.00;100718.88;7401411;19;20066;-59
2023/12/18 06:17:32;;;;;;;0.08;0.00;;;;;;;16.42;100.00;100709.94;7398696;19;20541;-58
2023/12/18 06:19:58;;;;;;;0.00;0.00;;;;;;;16.42;100.00;100712.75;7398653;19;20011;-58
2023/12/18 06:22:24;;;;;;;0.00;0.00;;;;;;;16.39;100.00;100700.47;7399713;19;20013;-58
2023/12/18 06:24:51;;;;;;;0.00;0.00;;;;;;;16.43;100.00;100701.03;7401241;19;20011;-59
2023/12/18 06:27:17;;;;;;;0.00;0.00;;;;;;;16.45;100.00;100715.34;7400900;19;20038;-59
2023/12/18 06:29:43;;;;;;;0.85;0.20;;;;;;;16.47;100.00;100707.19;7398793;19;20007;-59
2023/12/18 06:32:10;;;;;;;9.13;0.77;;;;;;;16.49;100.00;100699.03;7397077;19;20408;-59
2023/12/18 06:34:36;;;;;;;2.20;1.23;;;;;;;16.48;100.00;100703.09;7397636;19;20078;-59
2023/12/18 06:37:03;;;;;;;4.97;1.35;;;;;;;16.51;100.00;100704.19;7397986;19;20069;-59
2023/12/18 06:39:29;;;;;;;10.50;1.90;;;;;;;27.37;100.00;100684.25;7402234;19;20007;-59
2023/12/18 06:41:56;;;;;;;5.47;1.35;;;;;;;42.76;33.56;100660.25;7395408;19;20109;-59
2023/12/18 06:44:32;;;;;;;0.38;0.30;;;;;;;45.44;27.81;100645.69;7397257;19;20550;-60
2023/12/18 06:46:58;;;;;;;3.10;0.90;;;;;;;46.80;25.01;100641.28;7398198;19;20007;-60
2023/12/18 06:49:39;;;;;;;0.63;0.55;;;;;;;45.95;25.11;100638.50;7398208;19;20014;-59
2023/12/18 06:52:07;;;;;;;3.72;0.60;;;;;;;23.83;77.57;100677.56;7395991;19;20086;-59
2023/12/18 06:54:34;;;;;;;1.40;0.82;;;;;;;19.55;100.00;100694.19;7396290;19;20015;-59
2023/12/18 06:57:02;;;;;;;0.43;0.32;;;;;;;18.23;100.00;100694.09;7397001;19;20010;-59
2023/12/18 06:59:28;;;;;;;0.73;0.17;;;;;;;17.81;100.00;100698.53;7393876;19;20034;-59
2023/12/18 07:01:55;;;;;;;0.20;0.10;;;;;;;17.30;100.00;100710.00;7393413;19;20470;-59
2023/12/18 07:04:21;;;;;;;0.38;0.05;;;;;;;17.39;100.00;100695.69;7395102;19;20010;-60
2023/12/18 07:06:47;;;;;;;0.10;0.10;;;;;;;17.19;100.00;100702.25;7394524;19;20010;-60
2023/12/18 07:09:13;;;;;;;0.52;0.50;;;;;;;16.79;100.00;100696.00;7397222;19;20151;-59
2023/12/18 07:11:39;;;;;;;0.10;0.00;;;;;;;16.61;100.00;100706.31;7393677;19;20010;-59
2023/12/18 07:14:05;;;;;;;0.50;0.20;;;;;;;16.56;100.00;100698.63;7399084;19;20022;-59
2023/12/18 07:16:33;;;;;;;0.75;0.20;;;;;;;17.82;100.00;100697.25;7395436;19;20037;-59
2023/12/18 07:19:00;;;;;;;0.10;0.10;;;;;;;18.67;100.00;100689.31;7397482;19;20030;-59
2023/12/18 07:21:28;;;;;;;0.20;0.03;;;;;;;17.16;100.00;100700.41;7401032;19;20033;-59
2023/12/18 07:23:55;;;;;;;0.10;0.10;;;;;;;16.76;100.00;100700.59;7399834;19;20466;-58
2023/12/18 07:26:23;;;;;;;1.08;0.38;;;;;;;16.71;100.00;100703.34;7398199;19;20015;-59
2023/12/18 07:28:54;;;;;;;0.30;0.20;;;;;;;21.51;100.00;100679.03;7398487;19;20364;-58
2023/12/18 07:31:23;;;;;;;0.10;0.10;;;;;;;17.40;100.00;100692.41;7395817;19;20374;-60
2023/12/18 07:33:57;;;;;;;0.80;0.30;;;;;;;20.67;100.00;100688.78;7396073;19;20481;-59
2023/12/18 07:36:27;;;;;;;0.98;0.10;;;;;;;31.10;70.67;100679.28;7400258;19;20011;-60
2023/12/18 07:38:55;;;;;;;0.00;0.00;;;;;;;31.96;59.15;100673.72;7397589;19;20040;-60
2023/12/18 07:41:22;;;;;;;0.05;0.00;;;;;;;34.97;41.27;100667.19;7399812;19;20362;-60
2023/12/18 07:43:49;;;;;;;0.82;0.20;;;;;;;20.48;100.00;100691.50;7396924;19;20011;-59
2023/12/18 07:46:22;;;;;;;0.10;0.10;;;;;;;19.65;100.00;100697.50;7398184;19;20463;-59
2023/12/18 07:48:49;;;;;;;0.10;0.05;;;;;;;17.83;100.00;100718.53;7395481;19;20014;-59
2023/12/18 07:51:15;;;;;;;0.00;0.00;;;;;;;21.21;100.00;100686.81;7395378;19;20014;-59
2023/12/18 07:53:41;;;;;;;2.20;0.40;;;;;;;17.94;100.00;100687.59;7397102;19;20033;-59
2023/12/18 07:56:08;;;;;;;0.10;0.00;;;;;;;35.93;48.04;100657.13;7395913;19;20007;-60
2023/12/18 07:58:34;;;;;;;0.47;0.10;;;;;;;42.58;31.92;100647.25;7398508;19;20079;-59
2023/12/18 08:01:03;;;;;;;0.00;0.00;;;;;;;44.49;27.51;100640.00;7394784;19;20452;-60
2023/12/18 08:03:30;;;;;;;0.10;0.00;;;;;;;44.58;26.70;100632.81;7395817;19;20021;-59
2023/12/18 08:05:56;;;;;;;0.00;0.00;;;;;;;25.22;53.01;100666.59;7395359;19;20364;-58
2023/12/18 08:08:22;;;;;;;7.43;0.32;;;;;;;18.81;100.00;100670.63;7399922;19;20010;-58
2023/12/18 08:10:55;;;;;;;0.00;0.00;;;;;;;17.28;100.00;100676.69;7393527;19;20017;-58
2023/12/18 08:13:21;;;;;;;1.35;0.32;;;;;;;16.65;100.00;100675.94;7398062;19;20011;-65
2023/12/18 08:15:47;;;;;;;0.10;0.05;;;;;;;37.55;44.09;100648.06;7398169;19;20026;-65
2023/12/18 08:18:15;;;;;;;0.00;0.00;;;;;;;43.79;28.54;100642.66;7393082;19;20113;-65
2023/12/18 08:20:43;;;;;;;0.70;0.15;;;;;;;45.43;25.89;100638.28;7396293;19;20018;-65
2023/12/18 08:23:10;;;;;;;0.10;0.10;;;;;;;43.64;26.06;100638.59;7396114;19;20038;-65
2023/12/18 08:25:36;;;;;;;0.10;0.10;;;;;;;43.37;25.95;100638.56;7393300;19;20034;-64
2023/12/18 08:28:02;;;;;;;0.30;0.30;;;;;;;43.15;25.30;100640.88;7394459;19;20006;-66
2023/12/18 08:30:29;;;;;;;1.88;0.65;;;;;;;43.06;25.01;100647.97;7394568;19;20047;-66
2023/12/18 08:33:01;;;;;;;0.47;0.47;;;;;;;43.04;24.95;100636.91;7393486;19;20014;-65
2023/12/18 08:35:28;;;;;;;2.75;0.10;;;;;;;43.24;24.40;100640.41;7396363;19;20010;-65
2023/12/18 08:37:54;;;;;;;9.20;1.15;;;;;;;43.43;24.30;100641.66;7394620;19;20006;-66
2023/12/18 08:40:21;;;;;;;2.17;0.45;;;;;;;43.47;24.32;100641.81;7394174;19;20019;-65
2023/12/18 08:42:47;;;;;;;1.75;0.70;;;;;;;43.32;24.10;100634.06;7393363;19;20018;-66
2023/12/18 08:45:15;;;;;;;2.25;0.60;;;;;;;43.23;24.04;100629.38;7391944;19;20022;-66
2023/12/18 08:47:42;;;;;;;6.18;0.70;;;;;;;43.02;23.85;100633.16;7393290;19;20066;-65
2023/12/18 08:50:09;;;;;;;3.30;0.65;;;;;;;42.87;23.85;100635.69;7397039;19;20013;-65
2023/12/18 08:52:36;;;;;;;6.82;0.63;;;;;;;39.69;27.28;100641.56;7395498;19;20011;-65
2023/12/18 08:55:03;;;;;;;3.40;0.47;;;;;;;43.22;23.91;100622.00;7394162;19;20007;-65
2023/12/18 08:57:29;;;;;;;10.77;1.63;;;;;;;43.81;23.67;100630.22;7391569;19;20011;-66
2023/12/18 08:59:56;;;;;;;4.50;1.05;;;;;;;44.27;23.27;100623.28;7392277;19;20026;-65
2023/12/18 09:02:22;;;;;;;2.28;1.17;;;;;;;44.24;23.04;100627.66;7392014;19;20455;-65
2023/12/18 09:04:49;;;;;;;0.75;0.45;;;;;;;44.13;22.76;100625.16;7392778;19;20015;-65
2023/12/18 09:07:15;;;;;;;1.10;0.30;;;;;;;44.37;22.92;100628.66;7393073;19;20007;-65
2023/12/18 09:09:43;;;;;;;11.48;1.75;;;;;;;44.35;22.66;100644.06;7392445;19;20022;-65
2023/12/18 09:12:09;;;;;;;0.20;0.10;;;;;;;44.52;22.65;100638.56;7391278;19;20014;-65
2023/12/18 09:14:36;;;;;;;1.23;0.30;;;;;;;44.93;21.99;100629.94;7400153;19;20019;-59
2023/12/18 09:17:03;;;;;;;1.90;0.30;;;;;;;45.76;21.53;100641.13;7403309;19;20369;-58
2023/12/18 09:19:29;;;;;;;6.72;0.95;;;;;;;44.81;21.93;100635.56;7400262;19;20006;-59
2023/12/18 09:21:55;;;;;;;1.17;0.47;;;;;;;44.75;21.92;100628.81;7400025;19;20014;-59
2023/12/18 09:24:22;;;;;;;0.75;0.47;;;;;;;44.52;21.81;100626.81;7400041;19;20021;-58
2023/12/18 09:26:48;;;;;;;0.32;0.28;;;;;;;44.60;21.89;100621.09;7398952;19;20041;-58
2023/12/18 09:29:14;;;;;;;1.13;0.20;;;;;;;44.29;22.21;100610.88;7404041;19;20096;-58
2023/12/18 09:31:40;;;;;;;0.00;0.00;;;;;;;47.08;20.56;100606.25;7396741;19;20027;-58
2023/12/18 09:34:06;;;;;;;0.30;0.30;;;;;;;45.37;21.58;100605.81;7402848;19;20014;-59
2023/12/18 09:36:32;;;;;;;0.20;0.13;;;;;;;45.13;21.65;100600.94;7397331;19;20014;-58
2023/12/18 09:38:58;;;;;;;0.10;0.10;;;;;;;45.94;21.02;100598.75;7402326;19;20010;-58
2023/12/18 09:41:25;;;;;;;0.52;0.10;;;;;;;44.99;21.22;100612.41;7398063;19;20039;-58
2023/12/18 09:43:52;;;;;;;3.55;0.10;;;;;;;44.74;21.47;100612.59;7399119;19;20014;-58
2023/12/18 09:46:22;;;;;;;0.32;0.22;;;;;;;44.70;21.69;100607.41;7398347;19;20070;-58
2023/12/18 09:48:49;;;;;;;1.42;0.32;;;;;;;44.61;21.81;100599.09;7400509;19;20006;-59
2023/12/18 09:51:24;;;;;;;0.00;0.00;;;;;;;44.94;21.65;100601.28;7396679;19;20014;-59
2023/12/18 09:53:51;;;;;;;2.38;0.13;;;;;;;44.72;21.59;100610.38;7402145;19;20082;-59
2023/12/18 09:56:20;;;;;;;0.40;0.25;;;;;;;44.60;22.03;100600.53;7401785;19;20075;-59
2023/12/18 09:58:47;;;;;;;3.40;0.20;;;;;;;47.12;20.15;100582.69;7401835;19;20013;-58
2023/12/18 10:01:16;;;;;;;0.00;0.00;;;;;;;45.06;21.44;100586.81;7397730;19;20006;-58
2023/12/18 10:03:42;;;;;;;0.15;0.05;;;;;;;44.97;21.39;100570.44;7396780;19;20017;-58
2023/12/18 10:06:09;;;;;;;0.40;0.10;;;;;;;46.36;20.89;100569.91;7396358;19;20018;-58
2023/12/18 10:08:35;;;;;;;7.00;0.35;;;;;;;44.70;21.71;100577.25;7399143;19;20428;-59
2023/12/18 10:11:03;;;;;;;0.03;0.00;;;;;;;45.22;21.52;100583.47;7396705;19;20007;-59
2023/12/18 10:13:29;;;;;;;0.00;0.00;;;;;;;45.99;21.17;100594.38;7397113;19;20046;-59
2023/12/18 10:15:56;;;;;;;0.00;0.00;;;;;;;44.71;21.85;100584.59;7398227;19;20026;-58
2023/12/18 10:18:23;;;;;;;0.00;0.00;;;;;;;45.38;21.18;100574.91;7395908;19;20011;-59
2023/12/18 10:20:50;;;;;;;0.20;0.20;;;;;;;44.48;21.73;100568.72;7397235;19;20018;-58
2023/12/18 10:23:17;;;;;;;0.20;0.10;;;;;;;44.47;21.68;100567.22;7398215;19;20011;-59
2023/12/18 10:25:43;;;;;;;0.00;0.00;;;;;;;44.05;21.76;100578.00;7400176;19;20019;-58
2023/12/18 10:28:09;;;;;;;0.10;0.08;;;;;;;35.29;26.73;100593.91;7398883;19;20073;-58
2023/12/18 10:30:36;;;;;;;0.00;0.00;;;;;;;18.26;100.00;100636.69;7397329;19;20018;-60
2023/12/18 10:33:09;;;;;;;0.00;0.00;;;;;;;18.93;100.00;100608.00;7395593;19;20015;-58
2023/12/18 10:35:39;;;;;;;0.00;0.00;;;;;;;14.23;100.00;100615.91;7396473;19;20051;-59
2023/12/18 10:38:05;;;;;;;0.10;0.00;;;;;;;15.24;100.00;100599.44;7399784;19;20014;-59
2023/12/18 10:40:35;;;;;;;0.35;0.10;;;;;;;38.22;38.31;100556.16;7400611;19;20014;-61
2023/12/18 10:43:17;;;;;;;0.10;0.10;;;;;;;45.07;26.14;100550.06;7397998;19;20045;-59
2023/12/18 10:45:45;;;;;;;0.00;0.00;;;;;;;43.55;25.89;100553.97;7396974;19;20015;-60
2023/12/18 10:48:13;;;;;;;0.00;0.00;;;;;;;43.03;26.29;100547.47;7398099;19;20021;-59
2023/12/18 10:50:41;;;;;;;0.00;0.00;;;;;;;43.53;25.30;100545.13;7399102;19;20015;-59
2023/12/18 10:53:08;;;;;;;0.00;0.00;;;;;;;42.95;25.53;100553.84;7394784;19;20011;-62
2023/12/18 10:55:36;;;;;;;0.10;0.00;;;;;;;42.80;25.23;100530.66;7396769;19;20503;-59
2023/12/18 10:58:04;;;;;;;6.18;0.35;;;;;;;42.76;25.24;100525.44;7398264;19;20007;-59
2023/12/18 11:00:32;;;;;;;0.10;0.10;;;;;;;39.65;28.50;100536.38;7399408;19;20031;-59
2023/12/18 11:02:59;;;;;;;0.68;0.35;;;;;;;43.49;25.32;100527.41;7395366;19;20015;-59
2023/12/18 11:05:26;;;;;;;0.38;0.30;;;;;;;25.90;44.31;100552.13;7394777;19;20017;-59
2023/12/18 11:07:55;;;;;;;1.77;0.10;;;;;;;19.25;100.00;100563.25;7398274;19;20032;-59
2023/12/18 11:10:22;;;;;;;3.58;0.20;;;;;;;18.69;100.00;100550.56;7395056;19;20015;-59
2023/12/18 11:12:51;;;;;;;0.30;0.03;;;;;;;17.59;100.00;100563.22;7393264;19;20019;-59
2023/12/18 11:15:56;;;;;;;0.17;0.15;;;;;;;13.91;100.00;100576.84;7393668;19;20018;-59
2023/12/18 11:18:46;;;;;;;0.00;0.00;;;;;;;16.25;100.00;100566.41;7396564;19;20015;-59
2023/12/18 11:21:13;;;;;;;0.00;0.00;;;;;;;20.15;100.00;100555.88;7395676;19;20021;-60